Time;durP1;ratioP1;P1;durP2;ratioP2;P2;SDS_P1;SDS_P2;PMS_P1;PMS_P2;Temp;Humidity;BMP_temperature;BMP_pressure;BME280_temperature;BME280_humidity;BME280_pressure;Samples;Min_cycle;Max_cycle;Signal;HPM_P1;HPM_P2
2022/08/01 00:00:09;;;;;;;2.38;2.15;;;;;;;16.27;59.62;101388.59;5000616;28;20030;-76
2022/08/01 00:02:38;;;;;;;3.53;2.95;;;;;;;16.29;59.58;101397.25;4998498;28;20426;-76
2022/08/01 00:05:05;;;;;;;4.75;2.90;;;;;;;16.30;59.82;101395.47;5014478;28;20113;-75
2022/08/01 00:07:32;;;;;;;4.38;3.53;;;;;;;15.95;60.63;101396.47;5009414;28;20069;-75
2022/08/01 00:09:57;;;;;;;5.57;2.90;;;;;;;15.80;61.19;101390.22;5013187;28;20053;-75
2022/08/01 00:12:23;;;;;;;3.38;2.50;;;;;;;15.89;60.85;101399.44;5010478;28;20145;-75
2022/08/01 00:14:48;;;;;;;2.72;2.53;;;;;;;15.89;61.07;101399.44;5014886;28;20038;-76
2022/08/01 00:17:14;;;;;;;3.17;2.25;;;;;;;15.94;60.90;101402.66;5019018;28;20041;-76
2022/08/01 00:19:39;;;;;;;3.33;2.42;;;;;;;15.85;61.07;101407.59;5012542;28;20029;-74
2022/08/01 00:22:05;;;;;;;7.75;1.92;;;;;;;15.93;60.62;101406.25;5024812;28;20065;-74
2022/08/01 00:24:31;;;;;;;3.35;2.20;;;;;;;15.57;61.76;101412.53;5000046;28;20029;-78
2022/08/01 00:26:56;;;;;;;6.82;2.78;;;;;;;15.54;61.52;101420.59;5017914;28;20059;-75
2022/08/01 00:29:22;;;;;;;5.90;2.80;;;;;;;15.74;61.17;101416.06;4997485;28;20144;-75
2022/08/01 00:31:47;;;;;;;5.20;2.45;;;;;;;15.77;60.93;101421.16;5016290;28;20045;-75
2022/08/01 00:34:13;;;;;;;3.88;2.30;;;;;;;15.74;60.96;101421.34;5009139;28;20112;-76
2022/08/01 00:36:38;;;;;;;6.63;3.58;;;;;;;15.68;61.02;101422.50;5013366;28;20475;-76
2022/08/01 00:39:04;;;;;;;4.55;2.30;;;;;;;15.27;61.97;101416.78;4999423;28;20064;-75
2022/08/01 00:41:29;;;;;;;7.53;3.00;;;;;;;15.70;60.75;101419.78;5015973;28;20449;-74
2022/08/01 00:43:55;;;;;;;4.95;1.80;;;;;;;15.55;60.89;101419.69;5012219;28;20054;-76
2022/08/01 00:46:20;;;;;;;3.55;2.03;;;;;;;15.58;60.78;101419.50;5018695;28;20030;-74
2022/08/01 00:48:46;;;;;;;3.80;1.88;;;;;;;15.46;60.53;101421.91;5015075;28;20153;-76
2022/08/01 00:51:12;;;;;;;2.38;1.27;;;;;;;15.36;61.10;101418.91;5018695;28;20131;-75
2022/08/01 00:53:38;;;;;;;2.33;1.05;;;;;;;15.64;60.05;101420.09;5018415;28;20137;-75
2022/08/01 00:56:04;;;;;;;3.78;1.55;;;;;;;15.55;60.50;101424.94;5015202;28;20029;-74
2022/08/01 00:58:32;;;;;;;3.78;1.10;;;;;;;15.66;60.12;101424.38;5014933;28;20091;-76
2022/08/01 01:00:58;;;;;;;3.75;1.30;;;;;;;15.52;60.21;101422.44;5015044;28;20771;-76
2022/08/01 01:03:24;;;;;;;2.70;1.17;;;;;;;15.37;60.36;101421.50;5001289;28;20415;-74
2022/08/01 01:06:05;;;;;;;4.70;0.98;;;;;;;15.47;60.14;101419.22;5018090;28;20026;-75
2022/08/01 01:08:39;;;;;;;3.45;1.17;;;;;;;15.40;60.62;101419.63;5015922;28;20029;-75
2022/08/01 01:11:13;;;;;;;2.90;1.40;;;;;;;15.58;59.98;101422.13;5012362;28;20053;-75
2022/08/01 01:13:46;;;;;;;3.20;1.08;;;;;;;15.59;59.95;101426.50;5011501;28;20100;-76
2022/08/01 01:16:14;;;;;;;3.78;0.90;;;;;;;15.80;59.46;101421.00;5017697;28;20112;-75
2022/08/01 01:18:47;;;;;;;4.32;1.20;;;;;;;15.69;59.80;101423.38;5026066;28;20042;-76
2022/08/01 01:21:18;;;;;;;3.17;1.17;;;;;;;15.73;59.56;101428.38;5013204;28;20029;-75
2022/08/01 01:23:56;;;;;;;3.25;0.95;;;;;;;15.74;59.51;101430.06;5026508;28;20053;-78
2022/08/01 01:26:33;;;;;;;3.08;0.93;;;;;;;15.74;59.60;101431.88;4998942;28;20038;-75
2022/08/01 01:29:13;;;;;;;6.45;0.90;;;;;;;15.78;59.42;101433.41;5028629;28;20508;-75
2022/08/01 01:31:55;;;;;;;2.17;0.90;;;;;;;15.86;59.54;101433.84;5004352;28;20036;-76
2022/08/01 01:34:21;;;;;;;;;;;;;;;15.87;59.42;101430.28;5019502;28;20408;-77
2022/08/01 01:36:49;;;;;;;1.30;0.88;;;;;;;15.50;60.22;101437.47;5016894;28;19944;-74
2022/08/01 01:39:16;;;;;;;4.65;1.00;;;;;;;15.45;60.52;101439.50;5020553;28;20080;-76
2022/08/01 01:41:44;;;;;;;4.53;0.93;;;;;;;15.13;60.87;101444.63;5026117;28;20022;-76
2022/08/01 01:44:10;;;;;;;4.43;1.58;;;;;;;15.25;60.52;101451.06;5019608;28;20424;-76
2022/08/01 01:46:37;;;;;;;5.90;0.82;;;;;;;15.13;61.12;101456.94;5020186;28;20104;-75
2022/08/01 01:49:04;;;;;;;3.88;1.15;;;;;;;15.08;61.25;101461.56;5015038;28;20166;-77
2022/08/01 01:51:31;;;;;;;4.38;1.50;;;;;;;14.98;61.50;101458.53;5019536;28;20037;-75
2022/08/01 01:53:58;;;;;;;3.22;0.45;;;;;;;15.08;61.21;101462.44;4999507;28;20041;-74
2022/08/01 01:56:26;;;;;;;3.38;0.50;;;;;;;14.89;61.48;101464.25;4999839;28;20061;-76
2022/08/01 01:58:55;;;;;;;2.88;0.65;;;;;;;14.68;62.12;101464.38;4999909;28;20133;-76
2022/08/01 02:01:25;;;;;;;3.08;1.45;;;;;;;14.87;61.48;101461.69;4985708;28;20543;-74
2022/08/01 02:03:53;;;;;;;3.33;0.50;;;;;;;14.84;61.66;101466.28;5027868;28;20045;-74
2022/08/01 02:06:20;;;;;;;6.43;0.40;;;;;;;14.73;61.84;101465.00;5018776;28;20029;-75
2022/08/01 02:08:47;;;;;;;8.43;0.85;;;;;;;14.88;61.29;101467.81;5021158;28;20143;-76
2022/08/01 02:11:19;;;;;;;3.45;0.70;;;;;;;14.91;61.38;101465.03;5020421;28;20036;-74
2022/08/01 02:13:52;;;;;;;3.88;1.20;;;;;;;14.71;61.89;101471.28;5008275;28;20032;-76
2022/08/01 02:16:19;;;;;;;4.47;1.02;;;;;;;14.63;61.97;101468.13;5024347;28;20053;-76
2022/08/01 02:18:44;;;;;;;6.50;0.82;;;;;;;14.68;61.99;101463.50;5004788;28;20055;-74
2022/08/01 02:21:13;;;;;;;2.80;0.75;;;;;;;14.93;61.02;101463.19;5019402;28;20033;-75
2022/08/01 02:23:40;;;;;;;7.25;1.17;;;;;;;14.88;60.84;101473.94;5000450;28;20041;-74
2022/08/01 02:26:15;;;;;;;3.17;0.90;;;;;;;15.00;60.81;101474.28;4990501;28;20275;-76
2022/08/01 02:28:49;;;;;;;8.25;0.80;;;;;;;14.92;60.68;101480.72;4999111;28;20037;-75
2022/08/01 02:31:19;;;;;;;5.18;1.17;;;;;;;14.95;60.53;101477.13;5009719;28;20040;-76
2022/08/01 02:33:51;;;;;;;7.63;2.13;;;;;;;15.05;60.44;101469.63;5018765;28;20128;-75
2022/08/01 02:36:19;;;;;;;13.48;1.25;;;;;;;14.69;61.12;101479.22;5017781;28;20044;-75
2022/08/01 02:38:46;;;;;;;3.28;0.68;;;;;;;14.76;60.93;101480.63;5020550;28;20171;-76
2022/08/01 02:41:17;;;;;;;5.90;0.98;;;;;;;14.69;60.93;101479.22;5004748;28;20667;-76
2022/08/01 02:43:48;;;;;;;4.60;1.20;;;;;;;14.79;60.42;101484.03;5018630;28;20037;-76
2022/08/01 02:46:21;;;;;;;7.70;1.83;;;;;;;14.80;60.75;101491.03;5035660;28;20421;-75
2022/08/01 02:48:50;;;;;;;7.35;1.35;;;;;;;14.60;60.86;101500.72;5032859;28;20124;-75
2022/08/01 02:51:17;;;;;;;2.60;1.00;;;;;;;14.35;61.70;101500.97;5019155;28;20032;-75
2022/08/01 02:53:45;;;;;;;12.95;1.95;;;;;;;14.69;60.91;101495.00;4999573;28;20038;-76
2022/08/01 02:56:13;;;;;;;7.63;1.17;;;;;;;14.60;60.55;101500.72;5006901;28;20112;-76
2022/08/01 02:58:40;;;;;;;14.38;1.20;;;;;;;14.40;61.36;101508.66;5006703;28;20061;-73
2022/08/01 03:01:08;;;;;;;7.32;1.38;;;;;;;14.28;61.10;101500.41;5000346;28;20026;-76
2022/08/01 03:03:34;;;;;;;15.73;2.13;;;;;;;14.20;61.15;101507.78;5012050;28;20033;-77
2022/08/01 03:06:02;;;;;;;7.28;1.48;;;;;;;14.51;60.49;101524.81;5036331;28;20049;-74
2022/08/01 03:08:30;;;;;;;15.27;2.70;;;;;;;14.29;60.67;101520.50;5033156;28;20053;-75
2022/08/01 03:10:58;;;;;;;9.55;2.15;;;;;;;14.52;59.69;101518.63;5026397;28;20531;-76
2022/08/01 03:13:25;;;;;;;8.55;1.65;;;;;;;14.35;60.17;101512.34;5019874;28;20052;-75
2022/08/01 03:15:54;;;;;;;9.57;2.58;;;;;;;14.36;59.79;101514.03;5024042;28;20037;-75
2022/08/01 03:18:23;;;;;;;16.60;2.35;;;;;;;14.31;59.77;101526.53;5014793;28;20048;-75
2022/08/01 03:20:50;;;;;;;11.43;1.60;;;;;;;14.01;60.67;101533.16;5023414;28;20025;-76
2022/08/01 03:23:17;;;;;;;5.30;1.67;;;;;;;14.21;60.08;101538.41;5023061;28;20042;-75
2022/08/01 03:25:44;;;;;;;6.38;1.60;;;;;;;14.09;59.77;101537.16;5019499;28;20025;-78
2022/08/01 03:28:14;;;;;;;5.72;1.23;;;;;;;14.14;59.70;101540.47;5005266;28;20048;-76
2022/08/01 03:30:42;;;;;;;12.45;1.00;;;;;;;14.14;59.49;101545.72;5025033;28;20065;-76
2022/08/01 03:33:08;;;;;;;10.45;1.42;;;;;;;14.15;59.26;101541.31;5015494;28;20037;-77
2022/08/01 03:35:37;;;;;;;10.38;1.23;;;;;;;14.36;58.47;101535.06;5006363;28;20036;-77
2022/08/01 03:38:09;;;;;;;7.43;1.42;;;;;;;14.18;58.47;101538.53;5015614;28;20695;-77
2022/08/01 03:40:40;;;;;;;4.78;1.55;;;;;;;14.31;58.01;101539.69;5002000;28;20047;-77
2022/08/01 03:43:11;;;;;;;7.75;1.02;;;;;;;14.22;58.26;101547.16;5024461;28;20045;-75
2022/08/01 03:45:40;;;;;;;8.17;1.10;;;;;;;14.15;58.08;101554.47;5014646;28;20209;-76
2022/08/01 03:48:13;;;;;;;6.28;1.33;;;;;;;14.10;58.02;101559.06;5015586;28;20052;-75
2022/08/01 03:50:42;;;;;;;4.00;0.93;;;;;;;13.94;57.99;101562.38;5007073;28;20029;-78
2022/08/01 03:53:10;;;;;;;6.43;1.20;;;;;;;14.13;57.47;101567.66;5005957;28;20105;-75
2022/08/01 03:55:38;;;;;;;8.73;1.40;;;;;;;14.25;57.10;101576.78;5016638;28;20033;-75
2022/08/01 03:58:06;;;;;;;7.95;1.17;;;;;;;14.23;57.14;101568.13;5013335;28;20041;-74
2022/08/01 04:00:32;;;;;;;8.13;1.20;;;;;;;14.18;56.90;101562.19;5034655;28;20043;-76
2022/08/01 04:02:58;;;;;;;9.75;1.50;;;;;;;13.62;57.79;101568.97;5033443;28;20041;-75
2022/08/01 04:05:24;;;;;;;5.85;1.42;;;;;;;13.71;57.65;101573.84;5003365;28;20044;-74
2022/08/01 04:07:58;;;;;;;7.75;1.77;;;;;;;13.78;57.14;101560.44;5021664;28;20128;-75
2022/08/01 04:10:24;;;;;;;14.20;2.00;;;;;;;13.93;56.63;101567.69;5006536;28;20032;-76
2022/08/01 04:12:50;;;;;;;10.93;2.15;;;;;;;13.87;56.40;101566.16;5014649;28;20550;-74
2022/08/01 04:15:15;;;;;;;9.75;1.92;;;;;;;13.71;56.39;101563.34;5000529;28;20128;-75
2022/08/01 04:17:41;;;;;;;10.48;1.13;;;;;;;14.01;55.57;101564.72;5015626;28;20621;-75
2022/08/01 04:20:07;;;;;;;12.25;1.77;;;;;;;13.96;55.70;101569.31;5007972;28;20431;-75
2022/08/01 04:22:33;;;;;;;14.27;1.50;;;;;;;13.94;55.06;101570.25;5022784;28;20046;-75
2022/08/01 04:25:01;;;;;;;9.77;1.23;;;;;;;13.55;55.95;101582.41;5002915;28;20128;-76
2022/08/01 04:27:30;;;;;;;13.45;1.63;;;;;;;13.78;54.98;101586.72;5004856;28;20049;-76
2022/08/01 04:29:58;;;;;;;11.23;1.75;;;;;;;13.84;54.86;101589.94;5001633;28;20064;-76
2022/08/01 04:32:27;;;;;;;14.40;2.85;;;;;;;13.87;54.68;101588.97;5017922;28;20096;-75
2022/08/01 04:34:55;;;;;;;19.02;1.48;;;;;;;13.83;54.44;101597.88;4998417;28;20013;-75
2022/08/01 04:37:23;;;;;;;10.05;1.88;;;;;;;13.92;54.63;101593.13;5015865;28;20088;-75
2022/08/01 04:39:51;;;;;;;7.80;1.73;;;;;;;13.80;54.46;101591.00;5001705;28;20068;-76
2022/08/01 04:42:17;;;;;;;11.27;1.25;;;;;;;13.96;54.23;101592.97;5021677;28;20141;-75
2022/08/01 04:44:43;;;;;;;10.10;1.38;;;;;;;13.80;54.21;101598.03;5034440;28;20616;-75
2022/08/01 04:47:09;;;;;;;11.23;2.25;;;;;;;14.01;53.88;101607.63;5000755;28;20095;-77
2022/08/01 04:49:36;;;;;;;9.48;1.10;;;;;;;14.09;53.98;101600.25;5007896;28;20029;-76
2022/08/01 04:52:01;;;;;;;14.48;1.23;;;;;;;14.34;53.73;101615.84;5003441;28;20045;-74
2022/08/01 04:54:28;;;;;;;7.60;1.88;;;;;;;14.28;53.34;101608.22;5023081;28;20041;-76
2022/08/01 04:57:00;;;;;;;16.67;2.38;;;;;;;14.34;53.18;101618.47;4998069;28;20053;-75
2022/08/01 04:59:42;;;;;;;12.90;1.77;;;;;;;14.48;53.00;101611.78;5005047;28;20037;-75
2022/08/01 05:02:08;;;;;;;13.70;1.60;;;;;;;14.40;52.77;101621.75;5015749;28;20414;-75
2022/08/01 05:04:35;;;;;;;10.18;1.15;;;;;;;14.56;52.50;101604.38;5020621;28;20112;-77
2022/08/01 05:07:01;;;;;;;17.95;1.90;;;;;;;14.53;52.41;101612.41;5014257;28;20045;-74
2022/08/01 05:09:27;;;;;;;18.15;1.45;;;;;;;14.34;52.72;101610.56;5017363;28;20071;-76
2022/08/01 05:11:52;;;;;;;14.20;1.67;;;;;;;14.39;52.29;101607.75;5020263;28;20077;-76
2022/08/01 05:14:18;;;;;;;10.27;1.23;;;;;;;14.58;51.75;101622.72;5003701;28;20441;-75
2022/08/01 05:16:44;;;;;;;10.43;1.80;;;;;;;14.61;51.70;101622.56;5017971;28;20128;-76
2022/08/01 05:19:10;;;;;;;9.98;1.42;;;;;;;14.65;51.66;101630.25;4998955;28;20030;-76
2022/08/01 05:21:35;;;;;;;12.05;1.65;;;;;;;;;;5001141;28;20032;-76
2022/08/01 05:24:00;;;;;;;7.93;1.15;;;;;;;15.40;50.19;101625.94;5027359;28;20037;-76
2022/08/01 05:26:26;;;;;;;8.77;1.00;;;;;;;15.81;48.97;101623.00;5031783;28;20057;-75
2022/08/01 05:28:51;;;;;;;4.75;1.63;;;;;;;15.54;49.38;101627.88;4996341;28;20048;-76
2022/08/01 05:31:17;;;;;;;12.30;2.40;;;;;;;15.27;49.48;101632.72;5016947;28;20048;-75
2022/08/01 05:33:42;;;;;;;12.02;1.70;;;;;;;15.36;49.96;101635.75;4992131;28;20052;-77
2022/08/01 05:36:08;;;;;;;14.60;2.15;;;;;;;15.63;49.46;101645.03;5005579;28;20033;-77
2022/08/01 05:38:33;;;;;;;9.70;1.40;;;;;;;16.90;46.86;101640.25;5015086;28;20648;-76
2022/08/01 05:40:59;;;;;;;12.10;1.70;;;;;;;16.94;45.58;101639.16;4994088;28;20033;-77
2022/08/01 05:43:24;;;;;;;11.05;1.17;;;;;;;16.96;45.74;101639.94;5016357;28;20037;-77
2022/08/01 05:45:50;;;;;;;6.47;1.05;;;;;;;16.94;46.19;101641.78;5020873;28;20591;-75
2022/08/01 05:48:16;;;;;;;8.73;1.40;;;;;;;16.66;46.60;101645.88;5016246;28;20099;-75
2022/08/01 05:50:41;;;;;;;8.13;1.50;;;;;;;16.07;47.03;101655.16;5016307;28;20499;-75
2022/08/01 05:53:07;;;;;;;9.30;1.08;;;;;;;15.26;48.96;101660.84;5014424;28;20034;-76
2022/08/01 05:55:32;;;;;;;9.25;1.25;;;;;;;15.58;48.76;101653.16;5017808;28;20598;-75
2022/08/01 05:57:58;;;;;;;11.00;0.63;;;;;;;15.40;48.97;101654.06;5017494;28;20053;-76
2022/08/01 06:00:23;;;;;;;13.43;1.17;;;;;;;15.44;47.90;101655.59;5021723;28;20030;-77
2022/08/01 06:02:49;;;;;;;14.80;1.02;;;;;;;15.67;48.11;101665.03;5015415;28;20042;-76
2022/08/01 06:05:15;;;;;;;12.43;1.13;;;;;;;15.61;48.98;101660.06;5006217;28;20193;-74
2022/08/01 06:07:41;;;;;;;12.30;2.25;;;;;;;15.74;48.22;101658.50;5013807;28;20057;-76
2022/08/01 06:10:09;;;;;;;8.57;0.70;;;;;;;15.68;47.70;101651.75;5016840;28;20110;-77
2022/08/01 06:12:35;;;;;;;8.07;0.80;;;;;;;16.73;46.21;101651.69;5016166;28;20045;-75
2022/08/01 06:15:01;;;;;;;14.55;1.55;;;;;;;17.46;44.14;101657.34;5010899;28;20517;-75
2022/08/01 06:17:27;;;;;;;11.32;1.58;;;;;;;17.91;43.59;101660.94;5020358;28;20451;-76
2022/08/01 06:19:52;;;;;;;10.02;1.55;;;;;;;17.94;42.90;101671.38;5020193;28;20065;-76
2022/08/01 06:22:18;;;;;;;10.20;1.50;;;;;;;18.17;41.70;101667.34;5029786;28;20041;-76
2022/08/01 06:24:43;;;;;;;4.22;0.75;;;;;;;19.89;37.69;101660.97;5014396;28;20033;-75
2022/08/01 06:27:09;;;;;;;12.13;0.90;;;;;;;21.19;35.50;101664.31;5015130;28;21511;-76
2022/08/01 06:29:34;;;;;;;14.27;1.27;;;;;;;22.90;34.11;101664.69;5014091;28;20565;-78
2022/08/01 06:32:00;;;;;;;12.73;1.30;;;;;;;23.69;30.42;101667.13;5017778;28;20060;-78
2022/08/01 06:34:26;;;;;;;7.65;1.05;;;;;;;23.80;29.84;101670.56;4999907;28;20135;-76
2022/08/01 06:36:51;;;;;;;6.97;0.60;;;;;;;23.97;29.42;101668.34;5013381;28;20037;-74
2022/08/01 06:39:17;;;;;;;11.65;1.38;;;;;;;24.83;29.10;101669.75;5012789;28;20029;-76
2022/08/01 06:41:44;;;;;;;10.02;0.80;;;;;;;25.41;27.63;101673.53;5019883;28;20021;-75
2022/08/01 06:44:10;;;;;;;12.07;1.23;;;;;;;25.34;27.40;101673.25;5014460;28;20034;-76
2022/08/01 06:46:35;;;;;;;10.40;0.70;;;;;;;25.44;27.36;101674.13;5016989;28;20030;-74
2022/08/01 06:49:01;;;;;;;14.23;1.20;;;;;;;21.65;32.24;101687.56;5003195;28;20112;-76
2022/08/01 06:51:26;;;;;;;7.40;1.33;;;;;;;19.63;36.35;101690.06;5020089;28;20029;-75
2022/08/01 06:53:53;;;;;;;11.23;1.17;;;;;;;18.67;38.12;101687.25;5015389;28;20466;-76
2022/08/01 06:56:18;;;;;;;11.80;1.00;;;;;;;17.62;39.85;101694.38;5019960;28;20088;-75
2022/08/01 06:58:44;;;;;;;10.52;1.13;;;;;;;17.10;41.20;101694.63;5031709;28;20041;-75
2022/08/01 07:01:09;;;;;;;9.63;1.45;;;;;;;17.14;42.35;101697.00;5017728;28;20036;-76
2022/08/01 07:03:36;;;;;;;6.30;0.85;;;;;;;18.19;39.88;101702.53;5004385;28;20123;-76
2022/08/01 07:06:02;;;;;;;7.57;0.68;;;;;;;18.66;38.72;101703.25;5023822;28;20113;-74
2022/08/01 07:08:28;;;;;;;4.70;0.95;;;;;;;17.80;39.57;101710.97;5031915;28;20720;-75
2022/08/01 07:10:53;;;;;;;8.35;0.63;;;;;;;19.82;37.17;101705.63;5018578;28;20029;-77
2022/08/01 07:13:22;;;;;;;9.48;1.02;;;;;;;22.48;31.09;101691.91;5029320;28;20167;-75
2022/08/01 07:15:48;;;;;;;11.75;1.33;;;;;;;23.41;29.04;101698.78;5022335;28;20057;-77
2022/08/01 07:18:14;;;;;;;8.35;0.55;;;;;;;21.89;31.59;101699.97;5014174;28;20500;-77
2022/08/01 07:20:39;;;;;;;7.65;0.75;;;;;;;20.51;34.25;101700.13;5002294;28;20038;-76
2022/08/01 07:23:04;;;;;;;8.32;1.20;;;;;;;20.64;34.35;101694.78;5016863;28;20769;-75
2022/08/01 07:25:30;;;;;;;3.95;0.38;;;;;;;20.12;34.97;101702.72;5015283;28;20033;-78
2022/08/01 07:27:56;;;;;;;3.97;0.32;;;;;;;18.28;37.65;101703.78;5001598;28;20132;-77
2022/08/01 07:30:21;;;;;;;3.25;0.88;;;;;;;17.97;38.58;101715.28;4979183;28;20071;-75
2022/08/01 07:32:47;;;;;;;4.10;0.55;;;;;;;19.27;35.75;101717.97;5014063;28;20041;-76
2022/08/01 07:35:13;;;;;;;6.82;0.65;;;;;;;19.49;35.67;101713.97;4996329;28;20049;-77
2022/08/01 07:37:38;;;;;;;14.98;1.67;;;;;;;20.50;34.53;101712.53;5006684;28;20045;-77
2022/08/01 07:40:05;;;;;;;6.90;0.80;;;;;;;19.37;36.32;101712.97;5021434;28;20044;-76
2022/08/01 07:42:31;;;;;;;5.50;0.73;;;;;;;18.18;38.36;101706.09;5016547;28;20052;-76
2022/08/01 07:44:56;;;;;;;5.95;0.82;;;;;;;19.69;36.50;101712.69;5014635;28;20906;-75
2022/08/01 07:47:26;;;;;;;6.88;0.68;;;;;;;18.92;36.85;101716.72;5012881;28;20099;-75
2022/08/01 07:49:52;;;;;;;10.07;1.17;;;;;;;18.17;37.70;101725.56;5023153;28;20090;-76
2022/08/01 07:52:17;;;;;;;9.45;1.60;;;;;;;18.13;38.34;101725.84;5018562;28;20053;-77
2022/08/01 07:54:42;;;;;;;12.20;0.85;;;;;;;17.89;38.79;101725.47;5021722;28;20139;-77
2022/08/01 07:57:08;;;;;;;10.02;0.85;;;;;;;18.74;37.01;101730.09;5022546;28;20045;-76
2022/08/01 07:59:34;;;;;;;7.75;0.68;;;;;;;19.21;36.03;101729.00;5001665;28;20211;-76
2022/08/01 08:01:59;;;;;;;6.70;1.00;;;;;;;20.42;33.53;101727.31;5010853;28;20042;-77
2022/08/01 08:04:26;;;;;;;7.72;0.63;;;;;;;21.89;30.60;101726.56;4981903;28;20106;-76
2022/08/01 08:06:53;;;;;;;4.03;0.30;;;;;;;22.28;29.50;101737.88;5012465;28;20045;-75
2022/08/01 08:09:18;;;;;;;11.00;1.17;;;;;;;22.98;29.08;101743.03;4996689;28;20060;-76
2022/08/01 08:11:45;;;;;;;5.55;0.55;;;;;;;24.64;26.74;101740.03;5003900;28;20065;-76
2022/08/01 08:14:11;;;;;;;3.38;0.60;;;;;;;26.49;24.34;101737.59;5019888;28;20159;-73
2022/08/01 08:16:36;;;;;;;9.82;0.70;;;;;;;26.04;24.21;101738.22;5000183;28;20576;-75
2022/08/01 08:19:02;;;;;;;4.88;0.57;;;;;;;25.32;25.31;101738.59;5017327;28;20069;-79
2022/08/01 08:21:28;;;;;;;4.60;0.65;;;;;;;25.54;26.00;101737.53;5022129;28;20029;-78
2022/08/01 08:26:37;;;;;;;5.35;0.50;;;;;;;24.75;25.97;101748.91;5030735;28;20091;-77
2022/08/01 08:29:03;;;;;;;3.50;0.70;;;;;;;24.60;25.81;101754.63;5000717;28;20029;-73
2022/08/01 08:31:29;;;;;;;5.50;0.88;;;;;;;22.61;28.41;101758.41;5019078;28;20087;-74
2022/08/01 08:33:54;;;;;;;4.65;0.77;;;;;;;24.43;26.50;101763.25;5016943;28;20036;-74
2022/08/01 08:36:20;;;;;;;9.18;0.70;;;;;;;25.04;24.67;101768.66;5015420;28;20033;-77
2022/08/01 08:38:45;;;;;;;8.40;0.93;;;;;;;25.14;25.53;101767.84;5032540;28;20633;-75
2022/08/01 08:41:11;;;;;;;4.13;0.43;;;;;;;25.65;24.32;101766.84;5003374;28;20797;-75
2022/08/01 08:43:37;;;;;;;7.25;0.47;;;;;;;26.01;24.10;101769.81;5027488;28;20037;-76
2022/08/01 08:46:03;;;;;;;3.97;0.70;;;;;;;25.77;24.29;101771.06;5013618;28;20039;-76
2022/08/01 08:48:30;;;;;;;8.18;0.38;;;;;;;25.76;24.58;101772.06;5015615;28;20647;-75
2022/08/01 08:50:57;;;;;;;3.72;0.40;;;;;;;25.04;24.98;101790.06;5020451;28;20172;-76
2022/08/01 08:53:23;;;;;;;4.00;0.30;;;;;;;23.69;26.63;101785.38;5015944;28;20033;-77
2022/08/01 08:55:50;;;;;;;9.25;1.08;;;;;;;22.47;28.99;101785.22;5013559;28;20387;-76
2022/08/01 08:58:18;;;;;;;3.13;0.45;;;;;;;23.74;27.22;101787.66;5005539;28;20049;-75
2022/08/01 09:00:43;;;;;;;5.97;0.40;;;;;;;23.61;27.04;101793.16;4997673;28;20042;-76
2022/08/01 09:03:09;;;;;;;4.00;0.30;;;;;;;21.70;28.95;101797.13;4993648;28;21369;-75
2022/08/01 09:05:35;;;;;;;10.80;0.80;;;;;;;22.03;29.96;101802.75;5015797;28;20036;-76
2022/08/01 09:08:01;;;;;;;7.00;0.57;;;;;;;22.36;28.60;101800.25;4999445;28;20553;-75
2022/08/01 09:10:27;;;;;;;8.65;0.60;;;;;;;20.72;29.55;101809.34;5011053;28;20029;-76
2022/08/01 09:13:14;;;;;;;3.83;0.30;;;;;;;21.83;28.80;101797.09;4999921;28;20041;-76
2022/08/01 09:15:42;;;;;;;7.78;0.40;;;;;;;23.43;27.11;101806.16;5012362;28;20091;-74
2022/08/01 09:18:08;;;;;;;9.30;0.75;;;;;;;24.43;24.88;101795.31;5001844;28;20422;-74
2022/08/01 09:20:35;;;;;;;2.95;0.40;;;;;;;24.15;25.17;101808.31;5032713;28;20037;-76
2022/08/01 09:23:03;;;;;;;2.78;0.38;;;;;;;24.46;25.39;101796.88;5016862;28;20041;-78
2022/08/01 09:25:33;;;;;;;3.80;0.57;;;;;;;23.54;26.87;101807.97;5022366;28;20107;-76
2022/08/01 09:28:06;;;;;;;4.70;0.40;;;;;;;23.73;27.94;101813.53;5006123;28;20227;-78
2022/08/01 09:30:39;;;;;;;5.82;0.52;;;;;;;22.41;28.12;101807.03;5011407;28;20044;-76
2022/08/01 09:33:05;;;;;;;2.95;0.28;;;;;;;21.58;29.34;101819.31;5021214;28;20095;-77
2022/08/01 09:35:34;;;;;;;6.07;0.50;;;;;;;20.74;30.74;101813.59;5000130;28;20046;-76
2022/08/01 09:38:18;;;;;;;6.88;0.45;;;;;;;21.20;30.75;101822.88;4999007;28;20045;-76
2022/08/01 09:40:55;;;;;;;5.97;0.45;;;;;;;21.07;30.60;101830.00;5024683;28;20032;-77
2022/08/01 09:43:24;;;;;;;4.05;0.22;;;;;;;22.09;29.98;101818.28;5001134;28;20346;-76
2022/08/01 09:45:50;;;;;;;4.88;0.85;;;;;;;21.61;29.16;101819.06;5033590;28;20393;-77
2022/08/01 09:48:17;;;;;;;8.38;0.80;;;;;;;21.63;30.22;101830.47;5024794;28;20041;-77
2022/08/01 09:50:45;;;;;;;5.38;0.28;;;;;;;20.65;30.00;101839.94;5029662;28;20041;-78
2022/08/01 09:53:11;;;;;;;4.85;0.80;;;;;;;20.22;30.85;101832.19;4995913;28;20049;-77
2022/08/01 09:55:39;;;;;;;8.15;0.60;;;;;;;21.28;30.14;101839.09;5014657;28;20033;-79
2022/08/01 09:58:05;;;;;;;11.75;0.73;;;;;;;21.45;29.26;101840.59;5013787;28;20034;-77
2022/08/01 10:00:32;;;;;;;3.90;0.50;;;;;;;21.19;29.69;101847.72;5013007;28;20171;-76
2022/08/01 10:02:58;;;;;;;8.00;0.35;;;;;;;22.11;28.43;101853.63;5013503;28;20472;-77
2022/08/01 10:05:32;;;;;;;4.97;1.10;;;;;;;21.49;29.11;101844.75;5028203;28;20111;-77
2022/08/01 10:08:01;;;;;;;6.15;0.68;;;;;;;21.84;29.30;101851.16;5011900;28;20041;-75
2022/08/01 10:10:27;;;;;;;9.13;0.73;;;;;;;22.14;28.26;101850.75;5009971;28;20447;-77
2022/08/01 10:12:56;;;;;;;8.80;0.40;;;;;;;21.80;29.43;101849.66;4998602;28;20054;-77
2022/08/01 10:15:22;;;;;;;7.95;0.90;;;;;;;21.02;29.86;101858.69;5001398;28;20085;-77
2022/08/01 10:18:01;;;;;;;6.63;0.38;;;;;;;21.11;29.21;101852.72;5025466;28;20060;-76
2022/08/01 10:20:30;;;;;;;3.67;0.35;;;;;;;22.27;27.84;101850.66;5013498;28;20034;-76
2022/08/01 10:22:59;;;;;;;5.90;0.45;;;;;;;22.94;27.57;101845.56;5015098;28;20045;-75
2022/08/01 10:25:27;;;;;;;8.57;0.43;;;;;;;22.93;27.58;101849.19;5013552;28;20030;-77
2022/08/01 10:27:54;;;;;;;1.38;0.25;;;;;;;22.40;27.05;101854.09;5029133;28;20080;-75
2022/08/01 10:30:21;;;;;;;5.78;1.05;;;;;;;21.14;28.30;101858.69;5015440;28;20037;-76
2022/08/01 10:32:47;;;;;;;6.38;0.50;;;;;;;20.45;30.54;101860.72;5011017;28;20754;-76
2022/08/01 10:35:16;;;;;;;8.43;0.55;;;;;;;20.72;30.87;101857.16;5001792;28;20037;-77
2022/08/01 10:37:44;;;;;;;5.63;0.65;;;;;;;21.22;30.16;101862.63;5017798;28;20030;-76
2022/08/01 10:40:11;;;;;;;10.02;0.60;;;;;;;20.86;29.84;101859.75;5013143;28;20033;-77
2022/08/01 10:42:39;;;;;;;5.47;0.55;;;;;;;20.97;31.00;101872.28;5012594;28;20045;-78
2022/08/01 10:45:05;;;;;;;8.10;0.70;;;;;;;21.34;29.33;101875.06;5021163;28;20033;-78
2022/08/01 10:48:02;;;;;;;4.70;0.30;;;;;;;21.95;27.83;101867.19;5016114;28;20049;-78
2022/08/01 10:50:34;;;;;;;3.38;0.60;;;;;;;20.67;29.09;101868.09;4992317;28;20156;-77
2022/08/01 10:53:06;;;;;;;8.30;1.10;;;;;;;21.62;28.50;101873.13;4994211;28;20534;-77
2022/08/01 10:55:45;;;;;;;5.13;0.30;;;;;;;21.14;29.24;101861.34;5018221;28;20127;-77
2022/08/01 10:58:10;;;;;;;4.15;0.63;;;;;;;20.58;29.68;101867.88;5008929;28;20496;-77
2022/08/01 11:00:36;;;;;;;5.13;0.47;;;;;;;20.36;28.70;101863.97;5013942;28;20034;-76
2022/08/01 11:03:03;;;;;;;3.88;0.30;;;;;;;20.78;30.35;101864.72;5009981;28;20049;-76
2022/08/01 11:05:35;;;;;;;1.95;0.20;;;;;;;21.59;28.16;101860.06;5009411;28;20091;-77
2022/08/01 11:08:20;;;;;;;3.00;0.50;;;;;;;21.00;27.55;101857.94;4999810;28;20076;-77
2022/08/01 11:10:47;;;;;;;4.75;0.40;;;;;;;20.97;29.40;101855.50;5026973;28;20041;-76
2022/08/01 11:13:13;;;;;;;3.78;0.50;;;;;;;20.78;29.02;101862.06;5009816;28;20046;-76
2022/08/01 11:15:40;;;;;;;3.20;0.30;;;;;;;20.81;29.00;101863.66;5014426;28;20059;-77
2022/08/01 11:18:26;;;;;;;3.78;0.43;;;;;;;21.47;28.55;101864.41;5007054;28;20287;-77
2022/08/01 11:20:57;;;;;;;4.10;0.82;;;;;;;21.60;26.91;101865.28;4985119;28;20046;-77
2022/08/01 11:23:23;;;;;;;4.57;0.60;;;;;;;20.89;28.23;101862.19;5009104;28;20077;-78
2022/08/01 11:25:49;;;;;;;4.50;0.60;;;;;;;20.69;29.62;101866.19;5013315;28;20116;-78
2022/08/01 11:28:15;;;;;;;6.20;0.43;;;;;;;21.15;29.75;101864.84;5008626;28;20179;-77